createdAt,value
2022-08-14T00:00:02.687Z,24.82
2022-08-14T00:05:44.301Z,24.71
2022-08-14T00:11:14.124Z,24.67
2022-08-14T00:16:45.550Z,24.65
2022-08-14T00:22:44.558Z,24.65
2022-08-14T00:28:10.032Z,24.59
2022-08-14T00:33:52.560Z,24.58
2022-08-14T00:39:24.034Z,24.59
2022-08-14T00:44:55.523Z,24.57
2022-08-14T00:50:25.947Z,24.56
2022-08-14T00:55:56.558Z,24.59
2022-08-14T01:01:25.849Z,24.61
2022-08-14T01:06:55.299Z,24.52
2022-08-14T01:12:29.846Z,24.51
2022-08-14T01:18:17.527Z,24.42
2022-08-14T01:23:50.616Z,24.37
2022-08-14T01:29:48.639Z,24.41
2022-08-14T01:35:20.561Z,24.37
2022-08-14T01:41:02.292Z,24.40
2022-08-14T01:46:44.508Z,24.36
2022-08-14T01:52:34.422Z,24.33
2022-08-14T01:58:19.644Z,24.34
2022-08-14T02:03:49.989Z,24.34
2022-08-14T02:09:28.024Z,24.33
2022-08-14T02:15:02.053Z,24.29
2022-08-14T02:20:34.075Z,24.27
2022-08-14T02:26:24.087Z,24.21
2022-08-14T02:32:00.331Z,24.19
2022-08-14T02:37:47.810Z,24.16
2022-08-14T02:43:17.597Z,24.12
2022-08-14T02:49:01.271Z,24.10
2022-08-14T02:54:35.376Z,24.08
2022-08-14T03:00:06.711Z,24.05
2022-08-14T03:05:41.120Z,24.10
2022-08-14T03:11:12.619Z,24.13
2022-08-14T03:16:42.605Z,24.15
2022-08-14T03:22:17.681Z,24.21
2022-08-14T03:27:48.010Z,24.31
2022-08-14T03:33:38.058Z,24.38
2022-08-14T03:39:22.218Z,24.43
2022-08-14T03:45:20.191Z,24.45
2022-08-14T03:50:42.883Z,24.57
2022-08-14T03:56:21.355Z,24.67
2022-08-14T04:02:01.723Z,24.72
2022-08-14T04:07:35.940Z,24.74
2022-08-14T04:13:07.051Z,24.80
2022-08-14T04:18:42.429Z,24.93
2022-08-14T04:24:13.875Z,24.99
2022-08-14T04:29:45.336Z,24.75
2022-08-14T04:35:14.453Z,24.80
2022-08-14T04:41:06.518Z,24.92
2022-08-14T04:46:55.558Z,25.02
2022-08-14T04:52:26.423Z,25.19
2022-08-14T04:57:55.328Z,25.32
2022-08-14T05:03:27.483Z,25.40
2022-08-14T05:09:00.352Z,25.48
2022-08-14T05:14:45.964Z,25.52
2022-08-14T05:21:05.113Z,25.68
2022-08-14T05:26:13.206Z,25.81
2022-08-14T05:31:42.357Z,25.97
2022-08-14T05:37:15.189Z,26.15
2022-08-14T05:42:46.531Z,26.12
2022-08-14T05:48:32.921Z,26.27
2022-08-14T05:54:22.392Z,26.48
2022-08-14T05:59:56.408Z,26.70
2022-08-14T06:05:28.749Z,26.94
2022-08-14T06:11:03.611Z,27.24
2022-08-14T06:16:33.066Z,27.56
2022-08-14T06:22:02.841Z,27.89
2022-08-14T06:27:39.271Z,28.29
2022-08-14T06:33:09.305Z,28.97
2022-08-14T06:38:38.462Z,30.09
2022-08-14T06:44:09.694Z,31.07
2022-08-14T06:49:43.471Z,31.70
2022-08-14T06:55:16.381Z,32.17
2022-08-14T07:01:01.587Z,31.90
2022-08-14T07:06:45.753Z,32.19
2022-08-14T07:12:52.192Z,32.20
2022-08-14T07:18:08.904Z,32.36
2022-08-14T07:23:40.283Z,32.78
2022-08-14T07:29:13.535Z,33.13
2022-08-14T07:34:43.613Z,32.89
2022-08-14T07:40:13.734Z,33.31
2022-08-14T07:45:54.055Z,33.56
2022-08-14T07:51:24.651Z,32.72
2022-08-14T07:56:56.770Z,32.82
2022-08-14T08:02:32.458Z,32.77
2022-08-14T08:08:04.309Z,33.02
2022-08-14T08:13:42.113Z,33.00
2022-08-14T08:19:19.335Z,33.54
2022-08-14T08:24:50.329Z,33.68
2022-08-14T08:30:22.437Z,33.90
2022-08-14T08:35:52.104Z,33.91
2022-08-14T08:41:24.521Z,34.04
2022-08-14T08:46:58.754Z,34.23
2022-08-14T08:52:31.313Z,33.93
2022-08-14T08:58:05.586Z,34.12
2022-08-14T09:03:45.449Z,34.18
2022-08-14T09:09:22.864Z,34.67
2022-08-14T09:14:54.027Z,35.30
2022-08-14T09:20:26.333Z,35.81
2022-08-14T09:26:01.810Z,35.49
2022-08-14T09:31:42.870Z,34.76
2022-08-14T09:37:31.943Z,34.71
2022-08-14T09:43:19.965Z,35.53
2022-08-14T09:49:01.428Z,36.66
2022-08-14T09:54:39.321Z,36.49
2022-08-14T10:00:29.561Z,35.84
2022-08-14T10:06:12.586Z,35.35
2022-08-14T10:11:58.971Z,35.01
2022-08-14T10:17:33.110Z,34.49
2022-08-14T10:23:18.442Z,34.45
2022-08-14T10:29:17.879Z,35.32
2022-08-14T10:34:40.989Z,35.78
2022-08-14T10:40:37.407Z,35.88
2022-08-14T10:47:36.377Z,36.04
2022-08-14T10:52:07.278Z,35.79
2022-08-14T10:57:48.851Z,36.18
2022-08-14T11:03:26.717Z,36.39
2022-08-14T11:09:17.089Z,35.64
2022-08-14T11:14:59.843Z,34.96
2022-08-14T11:20:32.934Z,34.73
2022-08-14T11:26:03.618Z,34.72
2022-08-14T11:31:39.363Z,34.30
2022-08-14T11:37:22.863Z,34.26
2022-08-14T11:43:01.420Z,34.44
2022-08-14T11:48:58.990Z,34.48
2022-08-14T11:54:34.430Z,34.86
2022-08-14T12:00:08.525Z,35.31
2022-08-14T12:05:42.443Z,35.32
2022-08-14T12:11:13.805Z,35.53
2022-08-14T12:16:43.556Z,35.26
2022-08-14T12:22:17.656Z,35.27
2022-08-14T12:28:05.563Z,34.81
2022-08-14T12:33:34.505Z,34.43
2022-08-14T12:39:18.909Z,34.08
2022-08-14T12:44:49.662Z,34.08
2022-08-14T12:50:20.274Z,34.32
2022-08-14T12:56:21.671Z,34.38
2022-08-14T13:02:01.715Z,34.18
2022-08-14T13:07:37.719Z,34.19
2022-08-14T13:13:15.728Z,34.13
2022-08-14T13:18:47.125Z,34.19
2022-08-14T13:24:27.624Z,34.00
2022-08-14T13:30:04.057Z,33.88
2022-08-14T13:35:39.369Z,33.81
2022-08-14T13:41:09.066Z,33.81
2022-08-14T13:46:39.734Z,33.86
2022-08-14T13:52:48.226Z,34.04
2022-08-14T13:58:05.040Z,34.23
2022-08-14T14:03:38.069Z,34.50
2022-08-14T14:09:11.276Z,34.38
2022-08-14T14:14:51.146Z,34.02
2022-08-14T14:20:35.108Z,33.75
2022-08-14T14:26:06.151Z,33.45
2022-08-14T14:31:43.935Z,33.45
2022-08-14T14:37:15.591Z,33.30
2022-08-14T14:42:53.202Z,33.36
2022-08-14T14:48:28.306Z,33.06
2022-08-14T14:53:59.234Z,32.93
2022-08-14T14:59:28.887Z,32.99
2022-08-14T15:04:58.134Z,32.82
2022-08-14T15:10:31.085Z,32.54
2022-08-14T15:16:05.661Z,32.46
2022-08-14T15:21:34.956Z,32.54
2022-08-14T15:27:08.439Z,32.23
2022-08-14T15:32:37.525Z,31.92
2022-08-14T15:38:10.202Z,31.80
2022-08-14T15:43:40.903Z,31.70
2022-08-14T15:49:12.623Z,31.54
2022-08-14T15:54:41.380Z,31.32
2022-08-14T16:00:43.821Z,31.14
2022-08-14T16:06:17.782Z,30.91
2022-08-14T16:11:53.343Z,30.80
2022-08-14T16:17:26.004Z,30.72
2022-08-14T16:23:00.552Z,30.63
2022-08-14T16:28:33.583Z,30.50
2022-08-14T16:34:44.535Z,30.39
2022-08-14T16:39:54.413Z,30.28
2022-08-14T16:45:27.341Z,30.14
2022-08-14T16:50:57.832Z,30.09
2022-08-14T16:56:36.275Z,29.96
2022-08-14T17:02:06.762Z,29.92
2022-08-14T17:07:45.780Z,29.83
2022-08-14T17:13:17.982Z,29.79
2022-08-14T17:18:55.271Z,29.76
2022-08-14T17:24:56.742Z,29.65
2022-08-14T17:30:32.856Z,29.53
2022-08-14T17:36:10.901Z,29.42
2022-08-14T17:42:01.953Z,29.29
2022-08-14T17:47:33.965Z,29.26
2022-08-14T17:53:03.849Z,29.10
2022-08-14T17:58:42.243Z,29.00
2022-08-14T18:04:27.906Z,28.90
2022-08-14T18:10:51.812Z,28.81
2022-08-14T18:15:51.982Z,28.78
2022-08-14T18:21:40.673Z,28.75
2022-08-14T18:27:14.838Z,28.68
2022-08-14T18:32:55.366Z,28.67
2022-08-14T18:38:46.023Z,28.57
2022-08-14T18:44:15.094Z,28.56
2022-08-14T18:50:27.192Z,28.46
2022-08-14T18:55:59.939Z,28.46
2022-08-14T19:01:38.110Z,28.42
2022-08-14T19:07:19.039Z,28.41
2022-08-14T19:13:04.944Z,28.41
2022-08-14T19:18:38.279Z,28.38
2022-08-14T19:24:29.572Z,28.32
2022-08-14T19:30:26.798Z,28.23
2022-08-14T19:36:29.201Z,28.18
2022-08-14T19:42:02.445Z,28.15
2022-08-14T19:47:41.547Z,28.10
2022-08-14T19:53:17.558Z,28.08
2022-08-14T19:58:55.392Z,28.00
2022-08-14T20:04:46.974Z,27.89
2022-08-14T20:11:06.266Z,27.88
2022-08-14T20:16:21.026Z,27.83
2022-08-14T20:22:37.018Z,27.78
2022-08-14T20:27:59.528Z,27.77
2022-08-14T20:33:30.673Z,27.69
2022-08-14T20:39:16.985Z,27.61
2022-08-14T20:45:04.012Z,27.53
2022-08-14T20:50:34.837Z,27.44
2022-08-14T20:56:29.804Z,27.41
2022-08-14T21:02:29.757Z,27.31
2022-08-14T21:08:10.007Z,27.24
2022-08-14T21:14:24.673Z,27.19
2022-08-14T21:19:39.375Z,27.08
2022-08-14T21:25:12.888Z,27.03
2022-08-14T21:30:51.785Z,26.94
2022-08-14T21:36:24.476Z,26.86
2022-08-14T21:42:00.057Z,26.84
2022-08-14T21:47:29.360Z,26.80
2022-08-14T21:53:03.544Z,26.71
2022-08-14T21:58:52.125Z,26.58
2022-08-14T22:04:32.804Z,26.54
2022-08-14T22:10:07.399Z,26.54
2022-08-14T22:15:37.050Z,26.56
2022-08-14T22:21:08.074Z,26.56
2022-08-14T22:26:47.155Z,26.51
2022-08-14T22:32:18.017Z,26.44
2022-08-14T22:37:47.351Z,26.41
2022-08-14T22:43:38.921Z,26.40
2022-08-14T22:49:16.232Z,26.39
2022-08-14T22:54:58.790Z,26.31
2022-08-14T23:00:31.467Z,26.32
2022-08-14T23:06:02.209Z,26.31
2022-08-14T23:11:31.314Z,26.22
2022-08-14T23:17:04.072Z,26.17
2022-08-14T23:22:33.738Z,26.10
2022-08-14T23:28:04.873Z,26.05
2022-08-14T23:33:35.916Z,26.02
2022-08-14T23:39:19.006Z,25.89
2022-08-14T23:44:48.961Z,25.78
2022-08-14T23:50:34.108Z,25.70
2022-08-14T23:56:07.555Z,25.61
